createdAt,value
2022-09-21T00:01:34.449Z,55.02
2022-09-21T00:04:03.985Z,56.38
2022-09-21T00:06:34.109Z,58.03
2022-09-21T00:09:05.383Z,59.73
2022-09-21T00:11:34.558Z,61.15
2022-09-21T00:14:10.473Z,65.27
2022-09-21T00:16:39.718Z,64.59
2022-09-21T00:19:08.075Z,60.30
2022-09-21T00:21:38.262Z,54.99
2022-09-21T00:24:07.076Z,53.97
2022-09-21T00:26:34.876Z,55.50
2022-09-21T00:29:04.642Z,57.33
2022-09-21T00:31:33.989Z,58.90
2022-09-21T00:34:03.684Z,60.55
2022-09-21T00:36:31.619Z,61.86
2022-09-21T00:39:01.767Z,65.22
2022-09-21T00:41:32.162Z,64.63
2022-09-21T00:44:18.565Z,60.91
2022-09-21T00:46:49.702Z,55.09
2022-09-21T00:49:17.994Z,54.37
2022-09-21T00:51:47.229Z,55.85
2022-09-21T00:54:22.973Z,57.51
2022-09-21T00:56:51.001Z,59.05
2022-09-21T00:59:21.802Z,60.70
2022-09-21T01:01:51.844Z,64.19
2022-09-21T01:04:20.383Z,64.17
2022-09-21T01:06:50.382Z,60.69
2022-09-21T01:09:19.153Z,55.26
2022-09-21T01:12:05.482Z,53.89
2022-09-21T01:14:49.458Z,55.22
2022-09-21T01:17:31.332Z,57.16
2022-09-21T01:20:28.380Z,59.06
2022-09-21T01:23:14.849Z,60.68
2022-09-21T01:26:11.813Z,64.78
2022-09-21T01:29:01.207Z,63.63
2022-09-21T01:31:39.969Z,60.19
2022-09-21T01:34:16.071Z,54.43
2022-09-21T01:36:48.377Z,54.03
2022-09-21T01:39:20.877Z,55.57
2022-09-21T01:41:52.158Z,57.27
2022-09-21T01:44:23.906Z,58.86
2022-09-21T01:46:52.650Z,60.13
2022-09-21T01:49:27.334Z,61.52
2022-09-21T01:52:07.232Z,65.54
2022-09-21T01:54:43.531Z,64.91
2022-09-21T01:57:19.203Z,60.74
2022-09-21T01:59:52.810Z,55.02
2022-09-21T02:02:32.190Z,54.42
2022-09-21T02:05:05.434Z,55.82
2022-09-21T02:07:34.826Z,57.50
2022-09-21T02:10:05.064Z,58.76
2022-09-21T02:12:33.272Z,60.64
2022-09-21T02:15:03.000Z,63.91
2022-09-21T02:17:31.219Z,64.19
2022-09-21T02:20:00.117Z,61.33
2022-09-21T02:22:57.241Z,56.83
2022-09-21T02:25:36.685Z,55.58
2022-09-21T02:28:11.387Z,57.25
2022-09-21T02:30:44.235Z,58.88
2022-09-21T02:33:28.397Z,60.50
2022-09-21T02:36:36.319Z,64.03
2022-09-21T02:39:10.911Z,63.66
2022-09-21T02:42:08.618Z,60.18
2022-09-21T02:44:41.273Z,55.19
2022-09-21T02:47:21.836Z,54.89
2022-09-21T02:49:54.804Z,56.32
2022-09-21T02:52:25.314Z,58.11
2022-09-21T02:54:55.752Z,59.21
2022-09-21T02:57:24.567Z,61.30
2022-09-21T02:59:52.795Z,64.83
2022-09-21T03:02:20.597Z,64.65
2022-09-21T03:04:49.994Z,61.17
2022-09-21T03:07:18.073Z,56.19
2022-09-21T03:09:46.644Z,55.35
2022-09-21T03:12:14.438Z,56.63
2022-09-21T03:14:42.695Z,58.40
2022-09-21T03:17:10.426Z,59.83
2022-09-21T03:19:38.218Z,61.20
2022-09-21T03:22:05.999Z,64.45
2022-09-21T03:24:46.389Z,64.82
2022-09-21T03:27:20.667Z,61.45
2022-09-21T03:29:48.533Z,56.17
2022-09-21T03:32:16.386Z,54.90
2022-09-21T03:34:44.189Z,56.27
2022-09-21T03:37:12.214Z,57.91
2022-09-21T03:39:40.130Z,59.46
2022-09-21T03:42:09.210Z,60.65
2022-09-21T03:44:37.611Z,64.38
2022-09-21T03:47:06.679Z,64.57
2022-09-21T03:49:35.168Z,61.58
2022-09-21T03:52:03.642Z,55.99
2022-09-21T03:54:31.512Z,54.77
2022-09-21T03:56:59.407Z,56.01
2022-09-21T03:59:27.370Z,57.59
2022-09-21T04:01:55.173Z,59.12
2022-09-21T04:04:23.283Z,60.49
2022-09-21T04:06:51.725Z,63.77
2022-09-21T04:09:19.633Z,64.28
2022-09-21T04:11:48.320Z,61.34
2022-09-21T04:14:16.115Z,56.88
2022-09-21T04:16:43.877Z,56.02
2022-09-21T04:19:12.664Z,57.21
2022-09-21T04:21:40.532Z,58.47
2022-09-21T04:24:08.588Z,60.44
2022-09-21T04:26:36.881Z,61.02
2022-09-21T04:29:05.319Z,64.15
2022-09-21T04:31:33.535Z,65.45
2022-09-21T04:34:01.280Z,62.76
2022-09-21T04:36:34.379Z,59.91
2022-09-21T04:39:05.742Z,55.63
2022-09-21T04:41:33.544Z,55.09
2022-09-21T04:44:02.156Z,56.55
2022-09-21T04:46:30.147Z,58.30
2022-09-21T04:48:57.903Z,59.75
2022-09-21T04:51:25.778Z,61.13
2022-09-21T04:53:53.813Z,64.63
2022-09-21T04:56:21.621Z,64.57
2022-09-21T04:58:49.684Z,61.10
2022-09-21T05:01:17.568Z,56.18
2022-09-21T05:03:45.487Z,55.41
2022-09-21T05:06:13.689Z,56.85
2022-09-21T05:09:00.385Z,58.29
2022-09-21T05:11:28.387Z,59.82
2022-09-21T05:13:56.202Z,61.51
2022-09-21T05:16:24.010Z,64.77
2022-09-21T05:18:55.149Z,64.81
2022-09-21T05:21:23.894Z,61.79
2022-09-21T05:23:51.907Z,57.17
2022-09-21T05:26:20.841Z,55.92
2022-09-21T05:28:49.796Z,57.16
2022-09-21T05:31:18.467Z,58.69
2022-09-21T05:34:03.966Z,60.26
2022-09-21T05:37:02.712Z,61.20
2022-09-21T05:39:31.164Z,65.59
2022-09-21T05:41:59.429Z,64.50
2022-09-21T05:44:27.790Z,61.34
2022-09-21T05:47:36.327Z,57.53
2022-09-21T05:50:19.121Z,55.82
2022-09-21T05:53:02.286Z,57.41
2022-09-21T05:55:48.582Z,59.14
2022-09-21T05:58:40.593Z,60.93
2022-09-21T06:01:11.396Z,64.64
2022-09-21T06:03:42.106Z,63.77
